createdAt,value
2023-02-06T00:00:51.511Z,104506.81
2023-02-06T00:03:18.241Z,104503.47
2023-02-06T00:05:54.108Z,104507.03
2023-02-06T00:08:20.571Z,104501.06
2023-02-06T00:10:47.093Z,104506.19
2023-02-06T00:13:13.596Z,104508.06
2023-02-06T00:15:40.227Z,104497.72
2023-02-06T00:18:06.719Z,104493.44
2023-02-06T00:20:33.303Z,104490.84
2023-02-06T00:22:59.751Z,104493.44
2023-02-06T00:25:26.225Z,104478.00
2023-02-06T00:27:52.707Z,104474.66
2023-02-06T00:30:19.272Z,104478.22
2023-02-06T00:32:45.874Z,104478.31
2023-02-06T00:35:12.748Z,104475.69
2023-02-06T00:37:39.248Z,104476.94
2023-02-06T00:40:06.240Z,104476.53
2023-02-06T00:42:32.732Z,104476.84
2023-02-06T00:44:59.132Z,104478.00
2023-02-06T00:47:25.700Z,104468.19
2023-02-06T00:49:52.171Z,104476.63
2023-02-06T00:52:18.658Z,104482.50
2023-02-06T00:54:45.118Z,104484.88
2023-02-06T00:57:11.596Z,104489.91
2023-02-06T00:59:38.128Z,104488.22
2023-02-06T01:02:04.606Z,104483.53
2023-02-06T01:04:31.380Z,104482.69
2023-02-06T01:06:57.983Z,104483.44
2023-02-06T01:09:24.560Z,104497.31
2023-02-06T01:11:51.096Z,104489.28
2023-02-06T01:14:17.899Z,104490.94
2023-02-06T01:16:44.414Z,104497.59
2023-02-06T01:19:10.975Z,104500.94
2023-02-06T01:21:37.454Z,104500.94
2023-02-06T01:24:04.078Z,104509.28
2023-02-06T01:26:30.591Z,104499.78
2023-02-06T01:28:57.344Z,104505.75
2023-02-06T01:31:29.191Z,104504.06
2023-02-06T01:33:58.531Z,104502.63
2023-02-06T01:36:25.973Z,104501.56
2023-02-06T01:38:53.036Z,104504.19
2023-02-06T01:41:22.847Z,104495.50
2023-02-06T01:44:08.118Z,104499.78
2023-02-06T01:46:34.694Z,104493.44
2023-02-06T01:49:01.991Z,104491.53
2023-02-06T01:51:30.528Z,104495.63
2023-02-06T01:54:06.640Z,104491.75
2023-02-06T01:56:53.623Z,104491.66
2023-02-06T01:59:21.021Z,104494.03
2023-02-06T02:01:47.601Z,104488.72
2023-02-06T02:04:18.220Z,104480.88
2023-02-06T02:06:52.371Z,104481.81
2023-02-06T02:09:19.787Z,104477.53
2023-02-06T02:11:46.336Z,104475.03
2023-02-06T02:14:15.424Z,104487.47
2023-02-06T02:17:05.358Z,104480.59
2023-02-06T02:19:50.611Z,104471.19
2023-02-06T02:22:23.364Z,104473.78
2023-02-06T02:25:08.998Z,104469.72
2023-02-06T02:27:54.263Z,104477.97
2023-02-06T02:30:51.834Z,104472.97
2023-02-06T02:33:33.525Z,104474.34
2023-02-06T02:36:12.496Z,104460.06
2023-02-06T02:39:03.233Z,104458.59
2023-02-06T02:41:49.962Z,104451.81
2023-02-06T02:44:35.744Z,104448.56
2023-02-06T02:47:07.114Z,104447.00
2023-02-06T02:49:36.664Z,104449.81
2023-02-06T02:52:04.220Z,104461.41
2023-02-06T02:54:31.139Z,104452.00
2023-02-06T02:57:06.030Z,104451.50
2023-02-06T02:59:36.723Z,104457.03
2023-02-06T03:02:07.948Z,104445.97
2023-02-06T03:04:40.747Z,104454.00
2023-02-06T03:07:35.076Z,104442.09
2023-02-06T03:10:22.948Z,104452.09
2023-02-06T03:12:58.333Z,104429.25
2023-02-06T03:15:35.126Z,104435.00
2023-02-06T03:18:10.461Z,104431.84
2023-02-06T03:20:41.271Z,104438.31
2023-02-06T03:23:08.440Z,104440.47
2023-02-06T03:25:41.637Z,104431.09
2023-02-06T03:28:17.528Z,104437.53
2023-02-06T03:30:46.452Z,104446.50
2023-02-06T03:33:17.507Z,104443.44
2023-02-06T03:35:44.186Z,104449.69
2023-02-06T03:38:10.983Z,104445.91
2023-02-06T03:40:39.580Z,104443.88
2023-02-06T03:43:07.845Z,104439.19
2023-02-06T03:45:39.528Z,104443.84
2023-02-06T03:48:11.625Z,104447.19
2023-02-06T03:50:41.937Z,104442.50
2023-02-06T03:53:11.736Z,104454.59
2023-02-06T03:55:41.088Z,104438.53
2023-02-06T03:58:13.414Z,104449.25
2023-02-06T04:00:43.120Z,104457.06
2023-02-06T04:03:11.164Z,104452.78
2023-02-06T04:05:38.190Z,104454.44
2023-02-06T04:08:05.395Z,104457.63
2023-02-06T04:10:32.086Z,104463.00
2023-02-06T04:12:58.599Z,104444.88
2023-02-06T04:15:25.090Z,104444.69
2023-02-06T04:17:59.993Z,104452.41
2023-02-06T04:20:28.103Z,104451.56
2023-02-06T04:22:54.639Z,104447.22
2023-02-06T04:25:21.094Z,104455.75
2023-02-06T04:27:47.641Z,104454.94
2023-02-06T04:30:15.641Z,104449.91
2023-02-06T04:32:42.238Z,104456.22
2023-02-06T04:35:08.981Z,104452.78
2023-02-06T04:37:36.052Z,104449.53
2023-02-06T04:40:02.539Z,104454.84
2023-02-06T04:42:29.082Z,104450.47
2023-02-06T04:44:55.734Z,104431.50
2023-02-06T04:47:22.248Z,104429.00
2023-02-06T04:49:48.712Z,104434.22
2023-02-06T04:52:15.398Z,104441.19
2023-02-06T04:54:41.840Z,104434.03
2023-02-06T04:57:08.411Z,104448.16
2023-02-06T04:59:34.917Z,104456.78
2023-02-06T05:02:01.865Z,104460.03
2023-02-06T05:04:28.444Z,104455.59
2023-02-06T05:06:54.941Z,104453.16
2023-02-06T05:09:21.511Z,104448.91
2023-02-06T05:11:48.015Z,104452.34
2023-02-06T05:14:14.516Z,104461.16
2023-02-06T05:16:40.976Z,104456.06
2023-02-06T05:19:07.538Z,104462.31
2023-02-06T05:21:34.100Z,104453.00
2023-02-06T05:24:00.589Z,104468.81
2023-02-06T05:26:27.212Z,104468.25
2023-02-06T05:28:53.668Z,104460.63
2023-02-06T05:31:20.566Z,104469.19
2023-02-06T05:33:52.538Z,104466.75
2023-02-06T05:36:20.427Z,104477.34
2023-02-06T05:38:47.925Z,104482.56
2023-02-06T05:41:15.511Z,104481.06
2023-02-06T05:43:42.064Z,104474.94
2023-02-06T05:46:08.963Z,104480.03
2023-02-06T05:48:35.573Z,104483.47
2023-02-06T05:51:02.351Z,104485.16
2023-02-06T05:53:28.875Z,104481.72
2023-02-06T05:55:56.037Z,104484.41
2023-02-06T05:58:22.655Z,104466.13
2023-02-06T06:00:49.113Z,104467.69
2023-02-06T06:03:15.618Z,104466.75
2023-02-06T06:05:42.201Z,104471.88
2023-02-06T06:08:08.693Z,104471.97
2023-02-06T06:10:35.375Z,104465.19
2023-02-06T06:13:01.874Z,104465.28
2023-02-06T06:15:28.508Z,104467.97
2023-02-06T06:17:55.042Z,104469.91
2023-02-06T06:20:21.697Z,104480.22
2023-02-06T06:22:48.258Z,104481.81
2023-02-06T06:25:14.751Z,104474.00
2023-02-06T06:27:41.211Z,104487.75
2023-02-06T06:30:08.560Z,104483.31
2023-02-06T06:32:35.116Z,104482.38
2023-02-06T06:35:01.756Z,104484.22
2023-02-06T06:37:28.282Z,104483.66
2023-02-06T06:39:54.768Z,104490.63
2023-02-06T06:42:21.234Z,104489.63
2023-02-06T06:44:47.788Z,104489.53
2023-02-06T06:47:14.287Z,104487.75
2023-02-06T06:49:40.732Z,104479.88
2023-02-06T06:52:19.553Z,104477.34
2023-02-06T06:54:52.353Z,104473.00
2023-02-06T06:57:19.298Z,104465.28
2023-02-06T06:59:45.835Z,104460.91
2023-02-06T07:02:12.352Z,104464.53
2023-02-06T07:04:38.894Z,104463.59
2023-02-06T07:07:05.512Z,104466.13
2023-02-06T07:09:32.057Z,104461.94
2023-02-06T07:11:58.635Z,104455.06
2023-02-06T07:14:25.272Z,104457.56
2023-02-06T07:16:51.800Z,104457.38
2023-02-06T07:19:18.292Z,104459.16
2023-02-06T07:21:44.771Z,104465.09
2023-02-06T07:24:11.283Z,104458.78
2023-02-06T07:26:37.841Z,104440.47
2023-02-06T07:29:04.396Z,104446.25
2023-02-06T07:31:31.074Z,104429.59
2023-02-06T07:33:57.694Z,104430.25
2023-02-06T07:36:24.189Z,104415.25
2023-02-06T07:38:50.660Z,104415.06
2023-02-06T07:41:18.303Z,104407.06
2023-02-06T07:43:44.785Z,104419.16
2023-02-06T07:46:11.508Z,104423.22
2023-02-06T07:48:38.030Z,104409.09
2023-02-06T07:51:06.977Z,104400.16
2023-02-06T07:53:34.075Z,104405.00
2023-02-06T07:56:00.601Z,104396.88
2023-02-06T07:58:27.620Z,104394.69
2023-02-06T08:00:54.967Z,104377.94
2023-02-06T08:03:21.598Z,104370.69
2023-02-06T08:05:48.066Z,104378.28
2023-02-06T08:08:14.520Z,104371.97
2023-02-06T08:10:41.007Z,104363.94
2023-02-06T08:13:08.000Z,104368.84
2023-02-06T08:15:35.057Z,104360.75
2023-02-06T08:18:01.884Z,104365.41
2023-02-06T08:20:28.432Z,104355.53
2023-02-06T08:22:55.085Z,104364.50
2023-02-06T08:25:21.743Z,104357.03
2023-02-06T08:27:52.433Z,104345.94
2023-02-06T08:30:19.096Z,104352.31
2023-02-06T08:32:45.599Z,104352.63
2023-02-06T08:35:12.245Z,104347.22
2023-02-06T08:37:38.946Z,104356.91
2023-02-06T08:40:05.950Z,104365.75
2023-02-06T08:42:32.459Z,104358.13
2023-02-06T08:44:58.999Z,104357.25
2023-02-06T08:47:25.536Z,104357.53
2023-02-06T08:49:52.047Z,104347.72
2023-02-06T08:52:18.953Z,104352.41
2023-02-06T08:54:45.441Z,104356.25
2023-02-06T08:57:12.999Z,104370.41
2023-02-06T08:59:39.536Z,104364.41
2023-02-06T09:02:08.259Z,104363.75
2023-02-06T09:04:37.709Z,104358.34
2023-02-06T09:07:04.729Z,104355.53
2023-02-06T09:09:31.240Z,104353.81
2023-02-06T09:12:02.200Z,104358.13
2023-02-06T09:14:29.422Z,104358.84
2023-02-06T09:16:58.123Z,104364.81
2023-02-06T09:19:26.098Z,104363.63
2023-02-06T09:21:52.943Z,104364.47
2023-02-06T09:24:19.949Z,104363.66
2023-02-06T09:26:59.006Z,104364.59
2023-02-06T09:29:28.897Z,104351.97
2023-02-06T09:31:57.344Z,104351.50
2023-02-06T09:34:25.922Z,104366.00
2023-02-06T09:36:54.761Z,104375.63
2023-02-06T09:39:21.608Z,104383.56
2023-02-06T09:41:52.325Z,104376.56
2023-02-06T09:44:27.424Z,104377.38
2023-02-06T09:47:15.864Z,104377.03
2023-02-06T09:49:52.955Z,104383.56
2023-02-06T09:53:02.584Z,104376.75
2023-02-06T09:55:35.232Z,104382.22
2023-02-06T09:58:20.653Z,104375.50
2023-02-06T10:01:26.092Z,104378.97
2023-02-06T10:04:01.838Z,104374.06
2023-02-06T10:06:35.832Z,104377.50
2023-02-06T10:09:27.128Z,104388.56
2023-02-06T10:12:01.801Z,104388.25
2023-02-06T10:14:46.304Z,104390.97
2023-02-06T10:17:25.857Z,104380.63
2023-02-06T10:20:01.683Z,104382.53
2023-02-06T10:22:38.983Z,104369.72
2023-02-06T10:25:27.313Z,104370.78
2023-02-06T10:27:59.899Z,104379.47
2023-02-06T10:30:59.196Z,104367.09
2023-02-06T10:33:43.176Z,104369.66
2023-02-06T10:36:39.531Z,104364.97
2023-02-06T10:39:18.108Z,104366.44
2023-02-06T10:41:55.330Z,104359.03
2023-02-06T10:44:24.585Z,104358.78
2023-02-06T10:46:54.173Z,104365.69
2023-02-06T10:49:30.382Z,104370.31
2023-02-06T10:52:01.138Z,104373.50
2023-02-06T10:54:35.248Z,104373.59
2023-02-06T10:57:02.253Z,104364.78
2023-02-06T10:59:33.953Z,104360.13
2023-02-06T11:02:23.916Z,104366.50
2023-02-06T11:04:58.756Z,104370.59
2023-02-06T11:07:47.456Z,104372.41
2023-02-06T11:10:17.314Z,104378.00
2023-02-06T11:13:12.628Z,104382.75
2023-02-06T11:15:46.232Z,104382.31
2023-02-06T11:18:17.806Z,104385.16
2023-02-06T11:20:46.420Z,104372.44
2023-02-06T11:23:18.073Z,104367.47
2023-02-06T11:25:46.220Z,104363.38
2023-02-06T11:28:16.082Z,104354.91
2023-02-06T11:30:55.250Z,104355.50
2023-02-06T11:33:27.032Z,104350.91
2023-02-06T11:35:59.820Z,104349.13
2023-02-06T11:38:29.534Z,104343.56
2023-02-06T11:40:56.056Z,104340.94
2023-02-06T11:43:26.060Z,104335.03
2023-02-06T11:46:08.467Z,104334.47
2023-02-06T11:48:47.314Z,104332.81
2023-02-06T11:51:15.196Z,104335.31
2023-02-06T11:54:02.255Z,104333.91
2023-02-06T11:56:30.822Z,104331.94
2023-02-06T11:59:14.630Z,104324.22
2023-02-06T12:01:44.737Z,104321.16
2023-02-06T12:04:34.041Z,104327.66
2023-02-06T12:07:30.386Z,104329.03
2023-02-06T12:09:57.249Z,104331.97
2023-02-06T12:12:29.810Z,104321.31
2023-02-06T12:15:29.538Z,104318.00
2023-02-06T12:17:56.665Z,104314.81
2023-02-06T12:20:27.961Z,104305.53
2023-02-06T12:22:59.044Z,104311.63
2023-02-06T12:25:38.293Z,104317.44
2023-02-06T12:28:20.630Z,104320.34
2023-02-06T12:31:04.767Z,104314.56
2023-02-06T12:33:40.499Z,104313.97
2023-02-06T12:36:17.357Z,104313.97
2023-02-06T12:38:47.011Z,104310.66
2023-02-06T12:41:32.051Z,104302.22
2023-02-06T12:44:05.265Z,104296.97
2023-02-06T12:46:32.163Z,104292.41
2023-02-06T12:49:22.545Z,104294.34
2023-02-06T12:51:55.263Z,104297.13
2023-02-06T12:54:29.823Z,104293.09
2023-02-06T12:57:03.657Z,104281.59
2023-02-06T13:00:07.552Z,104278.41
2023-02-06T13:02:46.215Z,104275.47
2023-02-06T13:05:24.906Z,104281.84
2023-02-06T13:07:54.225Z,104270.50
2023-02-06T13:10:25.873Z,104261.38
2023-02-06T13:12:58.516Z,104252.75
2023-02-06T13:15:27.564Z,104246.59
2023-02-06T13:17:55.872Z,104247.06
2023-02-06T13:20:24.830Z,104239.03
2023-02-06T13:23:14.599Z,104232.44
2023-02-06T13:25:41.100Z,104231.13
2023-02-06T13:28:22.777Z,104242.28
2023-02-06T13:31:10.600Z,104240.91
2023-02-06T13:33:43.793Z,104229.22
2023-02-06T13:36:18.145Z,104224.97
2023-02-06T13:38:44.764Z,104219.22
2023-02-06T13:41:28.965Z,104221.81
2023-02-06T13:44:06.582Z,104223.91
2023-02-06T13:46:58.622Z,104234.47
2023-02-06T13:49:43.360Z,104236.13
2023-02-06T13:52:30.870Z,104231.56
2023-02-06T13:55:20.931Z,104227.97
2023-02-06T13:58:06.634Z,104218.84
2023-02-06T14:00:39.467Z,104224.56
2023-02-06T14:03:13.393Z,104223.09
2023-02-06T14:05:45.573Z,104221.66
2023-02-06T14:08:46.791Z,104225.88
2023-02-06T14:11:34.617Z,104219.00
2023-02-06T14:14:31.788Z,104218.22
2023-02-06T14:17:41.447Z,104212.69
2023-02-06T14:20:17.271Z,104211.03
2023-02-06T14:22:51.011Z,104215.53
2023-02-06T14:25:36.549Z,104213.84
2023-02-06T14:28:19.228Z,104217.19
2023-02-06T14:31:04.886Z,104214.28
2023-02-06T14:33:34.476Z,104219.25
2023-02-06T14:36:15.834Z,104223.69
2023-02-06T14:38:45.277Z,104218.84
2023-02-06T14:41:12.175Z,104220.50
2023-02-06T14:43:43.045Z,104228.13
2023-02-06T14:46:15.798Z,104227.28
2023-02-06T14:48:49.736Z,104215.69
2023-02-06T14:51:31.555Z,104221.50
2023-02-06T14:54:02.190Z,104226.34
2023-02-06T14:56:32.355Z,104235.88
2023-02-06T14:59:14.106Z,104231.31
2023-02-06T15:01:42.377Z,104230.91
2023-02-06T15:04:22.320Z,104231.47
2023-02-06T15:06:57.798Z,104225.22
2023-02-06T15:09:34.416Z,104225.78
2023-02-06T15:12:06.254Z,104226.06
2023-02-06T15:14:35.330Z,104217.63
2023-02-06T15:17:03.501Z,104218.03
2023-02-06T15:19:32.618Z,104225.22
2023-02-06T15:22:19.279Z,104218.88
2023-02-06T15:24:53.360Z,104230.63
2023-02-06T15:27:37.444Z,104228.25
2023-02-06T15:30:22.000Z,104228.25
2023-02-06T15:32:51.518Z,104226.72
2023-02-06T15:35:33.245Z,104226.00
2023-02-06T15:38:10.303Z,104217.88
2023-02-06T15:40:39.266Z,104215.81
2023-02-06T15:43:06.222Z,104221.34
2023-02-06T15:45:36.255Z,104224.81
2023-02-06T15:48:25.820Z,104223.28
2023-02-06T15:51:15.427Z,104222.59
2023-02-06T15:53:43.793Z,104215.81
2023-02-06T15:56:32.115Z,104216.78
2023-02-06T15:59:02.721Z,104216.09
2023-02-06T16:01:31.939Z,104211.38
2023-02-06T16:04:06.013Z,104210.25
2023-02-06T16:06:32.570Z,104210.94
2023-02-06T16:09:02.798Z,104214.50
2023-02-06T16:11:50.639Z,104206.03
2023-02-06T16:14:39.634Z,104215.94
2023-02-06T16:17:15.389Z,104220.59
2023-02-06T16:19:56.170Z,104215.06
2023-02-06T16:22:26.876Z,104220.50
2023-02-06T16:25:11.576Z,104217.97
2023-02-06T16:27:44.060Z,104218.84
2023-02-06T16:30:49.157Z,104221.03
2023-02-06T16:33:32.048Z,104215.47
2023-02-06T16:35:58.979Z,104216.53
2023-02-06T16:38:25.543Z,104217.78
2023-02-06T16:40:52.581Z,104219.84
2023-02-06T16:43:20.114Z,104228.78
2023-02-06T16:45:49.279Z,104235.66
2023-02-06T16:48:17.689Z,104238.16
2023-02-06T16:50:45.293Z,104236.63
2023-02-06T16:53:24.933Z,104235.91
2023-02-06T16:55:51.682Z,104229.97
2023-02-06T16:58:21.627Z,104246.19
2023-02-06T17:00:48.939Z,104239.41
2023-02-06T17:03:17.628Z,104243.81
2023-02-06T17:05:50.226Z,104243.69
2023-02-06T17:08:18.769Z,104248.09
2023-02-06T17:10:46.816Z,104255.13
2023-02-06T17:13:18.543Z,104260.50
2023-02-06T17:15:47.146Z,104255.75
2023-02-06T17:18:16.619Z,104253.63
2023-02-06T17:20:46.014Z,104255.94
2023-02-06T17:23:12.791Z,104244.41
2023-02-06T17:25:40.346Z,104253.13
2023-02-06T17:28:09.146Z,104247.53
2023-02-06T17:30:37.985Z,104246.41
2023-02-06T17:33:06.449Z,104248.78
2023-02-06T17:35:36.669Z,104239.75
2023-02-06T17:38:08.072Z,104238.09
2023-02-06T17:40:36.670Z,104239.91
2023-02-06T17:43:04.702Z,104241.22
2023-02-06T17:45:31.857Z,104243.81
2023-02-06T17:47:58.561Z,104247.41
2023-02-06T17:50:27.069Z,104241.09
2023-02-06T17:52:55.617Z,104243.13
2023-02-06T17:55:23.782Z,104236.44
2023-02-06T17:57:50.585Z,104240.25
2023-02-06T18:00:19.463Z,104236.31
2023-02-06T18:02:46.476Z,104236.19
2023-02-06T18:05:13.031Z,104235.09
2023-02-06T18:07:40.547Z,104239.34
2023-02-06T18:10:09.017Z,104243.34
2023-02-06T18:12:35.556Z,104236.81
2023-02-06T18:15:02.196Z,104234.69
2023-02-06T18:17:28.827Z,104230.72
2023-02-06T18:19:55.335Z,104235.34
2023-02-06T18:22:22.205Z,104233.28
2023-02-06T18:24:50.128Z,104230.19
2023-02-06T18:27:17.804Z,104234.78
2023-02-06T18:29:50.636Z,104225.53
2023-02-06T18:32:18.567Z,104228.81
2023-02-06T18:34:45.596Z,104217.69
2023-02-06T18:37:12.206Z,104217.53
2023-02-06T18:39:39.610Z,104216.81
2023-02-06T18:42:24.615Z,104211.72
2023-02-06T18:44:51.228Z,104213.94
2023-02-06T18:47:18.940Z,104207.59
2023-02-06T18:49:45.932Z,104207.38
2023-02-06T18:52:12.568Z,104212.34
2023-02-06T18:54:39.626Z,104201.19
2023-02-06T18:57:06.513Z,104207.34
2023-02-06T18:59:33.109Z,104203.28
2023-02-06T19:01:59.683Z,104198.16
2023-02-06T19:04:26.179Z,104196.81
2023-02-06T19:06:52.963Z,104203.59
2023-02-06T19:09:20.101Z,104194.78
2023-02-06T19:11:48.288Z,104197.47
2023-02-06T19:14:16.951Z,104189.66
2023-02-06T19:16:47.387Z,104201.97
2023-02-06T19:19:14.491Z,104190.09
2023-02-06T19:21:43.608Z,104185.19
2023-02-06T19:24:15.318Z,104190.59
2023-02-06T19:26:42.791Z,104194.44
2023-02-06T19:29:11.241Z,104190.59
2023-02-06T19:31:40.492Z,104184.75
2023-02-06T19:34:07.282Z,104187.81
2023-02-06T19:36:33.880Z,104187.28
2023-02-06T19:39:03.974Z,104186.41
2023-02-06T19:41:32.760Z,104186.09
2023-02-06T19:44:03.393Z,104191.72
2023-02-06T19:46:30.082Z,104195.25
2023-02-06T19:48:56.826Z,104199.63
2023-02-06T19:51:29.639Z,104201.59
2023-02-06T19:53:58.034Z,104197.09
2023-02-06T19:56:26.135Z,104205.47
2023-02-06T19:58:59.745Z,104203.06
2023-02-06T20:01:29.556Z,104205.66
2023-02-06T20:04:01.086Z,104196.94
2023-02-06T20:06:29.506Z,104196.53
2023-02-06T20:08:56.820Z,104190.97
2023-02-06T20:11:23.748Z,104197.50
2023-02-06T20:13:55.631Z,104196.41
2023-02-06T20:16:29.093Z,104197.53
2023-02-06T20:18:56.491Z,104190.97
2023-02-06T20:21:29.495Z,104184.41
2023-02-06T20:23:58.239Z,104191.16
2023-02-06T20:26:27.946Z,104196.66
2023-02-06T20:28:54.822Z,104193.31
2023-02-06T20:31:22.290Z,104189.03
2023-02-06T20:33:50.785Z,104191.94
2023-02-06T20:36:20.228Z,104193.13
2023-02-06T20:38:56.179Z,104186.84
2023-02-06T20:41:26.258Z,104194.00
2023-02-06T20:43:53.237Z,104194.63
2023-02-06T20:46:21.459Z,104192.78
2023-02-06T20:48:56.212Z,104188.81
2023-02-06T20:51:23.089Z,104175.56
2023-02-06T20:53:50.306Z,104177.50
2023-02-06T20:56:17.493Z,104185.56
2023-02-06T20:58:44.332Z,104183.16
2023-02-06T21:01:14.941Z,104181.31
2023-02-06T21:03:41.889Z,104192.16
2023-02-06T21:06:08.789Z,104188.28
2023-02-06T21:08:35.383Z,104184.84
2023-02-06T21:11:02.256Z,104184.63
2023-02-06T21:13:29.067Z,104186.31
2023-02-06T21:15:57.664Z,104182.13
2023-02-06T21:18:27.966Z,104188.28
2023-02-06T21:20:56.250Z,104191.97
2023-02-06T21:23:24.465Z,104188.06
2023-02-06T21:25:52.894Z,104190.38
2023-02-06T21:28:20.245Z,104189.06
2023-02-06T21:30:47.857Z,104193.50
2023-02-06T21:33:15.072Z,104184.97
2023-02-06T21:35:51.912Z,104180.16
2023-02-06T21:38:20.049Z,104189.88
2023-02-06T21:40:46.891Z,104174.50
2023-02-06T21:43:15.242Z,104180.34
2023-02-06T21:45:43.226Z,104183.78
2023-02-06T21:48:10.083Z,104183.88
2023-02-06T21:50:41.280Z,104188.66
2023-02-06T21:53:08.972Z,104179.56
2023-02-06T21:55:41.968Z,104183.06
2023-02-06T21:58:08.998Z,104182.16
2023-02-06T22:00:35.654Z,104182.25
2023-02-06T22:03:02.501Z,104179.91
2023-02-06T22:05:29.225Z,104176.13
2023-02-06T22:07:56.786Z,104181.63
2023-02-06T22:10:23.317Z,104176.81
2023-02-06T22:12:50.028Z,104188.94
2023-02-06T22:15:16.726Z,104184.50
2023-02-06T22:17:43.180Z,104193.84
2023-02-06T22:20:09.984Z,104182.81
2023-02-06T22:22:38.680Z,104195.03
2023-02-06T22:25:05.833Z,104195.03
2023-02-06T22:27:33.014Z,104196.38
2023-02-06T22:29:59.530Z,104192.38
2023-02-06T22:32:26.059Z,104190.78
2023-02-06T22:34:53.936Z,104190.63
2023-02-06T22:37:20.471Z,104188.84
2023-02-06T22:39:46.991Z,104187.94
2023-02-06T22:42:13.510Z,104182.00
2023-02-06T22:44:40.048Z,104189.94
2023-02-06T22:47:06.552Z,104185.72
2023-02-06T22:49:33.046Z,104189.22
2023-02-06T22:51:59.588Z,104193.66
2023-02-06T22:54:26.181Z,104198.75
2023-02-06T22:56:52.655Z,104201.84
2023-02-06T22:59:24.735Z,104192.41
2023-02-06T23:01:58.567Z,104184.63
2023-02-06T23:04:30.125Z,104190.72
2023-02-06T23:06:57.116Z,104189.06
2023-02-06T23:09:29.392Z,104185.81
2023-02-06T23:11:58.387Z,104184.47
2023-02-06T23:14:26.239Z,104175.09
2023-02-06T23:16:52.801Z,104181.03
2023-02-06T23:19:20.673Z,104183.63
2023-02-06T23:21:48.920Z,104190.56
2023-02-06T23:24:15.989Z,104184.63
2023-02-06T23:26:45.718Z,104182.38
2023-02-06T23:29:17.762Z,104197.19
2023-02-06T23:31:46.084Z,104192.56
2023-02-06T23:34:13.994Z,104197.59
2023-02-06T23:36:40.548Z,104190.66
2023-02-06T23:39:07.049Z,104187.22
2023-02-06T23:41:34.275Z,104198.44
2023-02-06T23:44:04.273Z,104196.25
2023-02-06T23:46:32.418Z,104194.97
2023-02-06T23:48:59.048Z,104192.53
2023-02-06T23:51:26.193Z,104195.81
2023-02-06T23:53:53.135Z,104199.22
2023-02-06T23:56:25.545Z,104193.13
2023-02-06T23:58:53.682Z,104188.19
